sensor_id;sensor_type;location;lat;lon;timestamp;pressure;altitude;pressure_sealevel;temperature;humidity
55079;BME280;55187;49.496;6.010;2022-09-29T00:00:21;95903.66;;;3.78;100.00
55079;BME280;55187;49.496;6.010;2022-09-29T00:02:49;95903.84;;;3.76;100.00
55079;BME280;55187;49.496;6.010;2022-09-29T00:05:15;95901.84;;;3.78;100.00
55079;BME280;55187;49.496;6.010;2022-09-29T00:07:43;95904.72;;;3.84;100.00
55079;BME280;55187;49.496;6.010;2022-09-29T00:10:10;95894.69;;;3.87;100.00
55079;BME280;55187;49.496;6.010;2022-09-29T00:12:36;95899.72;;;3.89;100.00
55079;BME280;55187;49.496;6.010;2022-09-29T00:15:04;95906.41;;;3.91;100.00
55079;BME280;55187;49.496;6.010;2022-09-29T00:17:30;95905.72;;;4.04;100.00
55079;BME280;55187;49.496;6.010;2022-09-29T00:19:57;95897.28;;;4.09;100.00
55079;BME280;55187;49.496;6.010;2022-09-29T00:22:23;95902.13;;;4.05;100.00
55079;BME280;55187;49.496;6.010;2022-09-29T00:24:49;95909.09;;;3.98;100.00
55079;BME280;55187;49.496;6.010;2022-09-29T00:27:17;95902.97;;;3.91;100.00
55079;BME280;55187;49.496;6.010;2022-09-29T00:29:44;95895.94;;;3.91;100.00
55079;BME280;55187;49.496;6.010;2022-09-29T00:32:11;95892.00;;;3.81;100.00
55079;BME280;55187;49.496;6.010;2022-09-29T00:34:37;95897.81;;;3.76;100.00
55079;BME280;55187;49.496;6.010;2022-09-29T00:37:04;95896.38;;;3.73;100.00
55079;BME280;55187;49.496;6.010;2022-09-29T00:39:30;95898.19;;;3.73;100.00
55079;BME280;55187;49.496;6.010;2022-09-29T00:41:57;95889.44;;;3.66;100.00
55079;BME280;55187;49.496;6.010;2022-09-29T00:47:16;95887.03;;;3.64;100.00
55079;BME280;55187;49.496;6.010;2022-09-29T00:49:56;95898.53;;;3.70;100.00
55079;BME280;55187;49.496;6.010;2022-09-29T00:52:36;95891.00;;;3.82;100.00
55079;BME280;55187;49.496;6.010;2022-09-29T00:55:11;95887.50;;;3.74;100.00
55079;BME280;55187;49.496;6.010;2022-09-29T00:58:02;95893.94;;;3.72;100.00
55079;BME280;55187;49.496;6.010;2022-09-29T01:00:31;95887.81;;;3.86;100.00
55079;BME280;55187;49.496;6.010;2022-09-29T01:03:02;95894.88;;;3.86;100.00
55079;BME280;55187;49.496;6.010;2022-09-29T01:05:36;95896.59;;;4.00;100.00
55079;BME280;55187;49.496;6.010;2022-09-29T01:08:21;95892.13;;;4.15;100.00
55079;BME280;55187;49.496;6.010;2022-09-29T01:10:50;95890.94;;;4.18;100.00
55079;BME280;55187;49.496;6.010;2022-09-29T01:13:18;95882.72;;;4.21;100.00
55079;BME280;55187;49.496;6.010;2022-09-29T01:15:45;95893.78;;;4.23;100.00
55079;BME280;55187;49.496;6.010;2022-09-29T01:18:11;95886.56;;;4.25;100.00
55079;BME280;55187;49.496;6.010;2022-09-29T01:23:54;95878.28;;;4.22;100.00
55079;BME280;55187;49.496;6.010;2022-09-29T01:29:38;95880.34;;;4.26;100.00
55079;BME280;55187;49.496;6.010;2022-09-29T01:35:25;95873.81;;;4.44;100.00
55079;BME280;55187;49.496;6.010;2022-09-29T01:38:31;95876.06;;;4.47;100.00
55079;BME280;55187;49.496;6.010;2022-09-29T01:41:05;95876.84;;;4.47;100.00
55079;BME280;55187;49.496;6.010;2022-09-29T01:43:42;95876.38;;;4.65;100.00
55079;BME280;55187;49.496;6.010;2022-09-29T01:46:15;95877.31;;;4.57;100.00
55079;BME280;55187;49.496;6.010;2022-09-29T01:48:50;95866.66;;;4.59;100.00
55079;BME280;55187;49.496;6.010;2022-09-29T01:51:23;95862.44;;;4.58;100.00
55079;BME280;55187;49.496;6.010;2022-09-29T01:53:55;95861.25;;;4.60;100.00
55079;BME280;55187;49.496;6.010;2022-09-29T01:56:28;95862.44;;;4.58;100.00
55079;BME280;55187;49.496;6.010;2022-09-29T01:59:07;95867.84;;;4.56;100.00
55079;BME280;55187;49.496;6.010;2022-09-29T02:01:40;95864.22;;;4.57;100.00
55079;BME280;55187;49.496;6.010;2022-09-29T02:04:22;95867.41;;;4.53;100.00
55079;BME280;55187;49.496;6.010;2022-09-29T02:06:56;95865.63;;;4.53;100.00
55079;BME280;55187;49.496;6.010;2022-09-29T02:09:29;95868.81;;;4.49;100.00
55079;BME280;55187;49.496;6.010;2022-09-29T02:11:58;95864.16;;;4.44;100.00
55079;BME280;55187;49.496;6.010;2022-09-29T02:14:39;95854.25;;;4.39;100.00
55079;BME280;55187;49.496;6.010;2022-09-29T02:17:14;95868.38;;;4.45;100.00
55079;BME280;55187;49.496;6.010;2022-09-29T02:19:46;95861.31;;;4.46;100.00
55079;BME280;55187;49.496;6.010;2022-09-29T02:22:14;95865.03;;;4.30;100.00
55079;BME280;55187;49.496;6.010;2022-09-29T02:24:42;95856.91;;;4.18;100.00
55079;BME280;55187;49.496;6.010;2022-09-29T02:27:09;95861.78;;;3.99;100.00
55079;BME280;55187;49.496;6.010;2022-09-29T02:29:37;95860.72;;;3.94;100.00
55079;BME280;55187;49.496;6.010;2022-09-29T02:32:05;95854.06;;;3.91;100.00
55079;BME280;55187;49.496;6.010;2022-09-29T02:34:39;95861.53;;;3.94;100.00
55079;BME280;55187;49.496;6.010;2022-09-29T02:37:34;95856.47;;;3.93;100.00
55079;BME280;55187;49.496;6.010;2022-09-29T02:40:27;95862.56;;;3.93;100.00
55079;BME280;55187;49.496;6.010;2022-09-29T02:43:25;95856.63;;;3.85;100.00
55079;BME280;55187;49.496;6.010;2022-09-29T02:46:23;95851.75;;;3.82;100.00
55079;BME280;55187;49.496;6.010;2022-09-29T02:49:12;95849.53;;;3.78;100.00
55079;BME280;55187;49.496;6.010;2022-09-29T02:51:56;95856.75;;;3.76;100.00
55079;BME280;55187;49.496;6.010;2022-09-29T02:54:44;95849.28;;;3.73;100.00
55079;BME280;55187;49.496;6.010;2022-09-29T03:00:09;95849.22;;;3.67;100.00
55079;BME280;55187;49.496;6.010;2022-09-29T03:02:39;95843.75;;;3.62;100.00
55079;BME280;55187;49.496;6.010;2022-09-29T03:05:16;95848.34;;;3.60;100.00
55079;BME280;55187;49.496;6.010;2022-09-29T03:07:44;95859.53;;;3.53;100.00
55079;BME280;55187;49.496;6.010;2022-09-29T03:10:11;95852.69;;;3.52;100.00
55079;BME280;55187;49.496;6.010;2022-09-29T03:12:38;95862.47;;;3.44;100.00
55079;BME280;55187;49.496;6.010;2022-09-29T03:15:05;95868.63;;;3.36;100.00
55079;BME280;55187;49.496;6.010;2022-09-29T03:17:32;95858.50;;;3.33;100.00
55079;BME280;55187;49.496;6.010;2022-09-29T03:19:58;95857.88;;;3.31;100.00
55079;BME280;55187;49.496;6.010;2022-09-29T03:22:25;95863.56;;;3.34;100.00
55079;BME280;55187;49.496;6.010;2022-09-29T03:24:51;95869.34;;;3.30;100.00
55079;BME280;55187;49.496;6.010;2022-09-29T03:27:18;95868.09;;;3.26;100.00
55079;BME280;55187;49.496;6.010;2022-09-29T03:29:44;95869.72;;;3.27;100.00
55079;BME280;55187;49.496;6.010;2022-09-29T03:32:11;95874.19;;;3.33;100.00
55079;BME280;55187;49.496;6.010;2022-09-29T03:34:37;95874.13;;;3.26;100.00
55079;BME280;55187;49.496;6.010;2022-09-29T03:37:03;95871.41;;;3.20;100.00
55079;BME280;55187;49.496;6.010;2022-09-29T03:39:30;95876.94;;;3.25;100.00
55079;BME280;55187;49.496;6.010;2022-09-29T03:41:56;95870.31;;;3.29;100.00
55079;BME280;55187;49.496;6.010;2022-09-29T03:44:23;95866.91;;;3.28;100.00
55079;BME280;55187;49.496;6.010;2022-09-29T03:46:49;95882.59;;;3.28;100.00
55079;BME280;55187;49.496;6.010;2022-09-29T03:49:15;95873.38;;;3.32;100.00
55079;BME280;55187;49.496;6.010;2022-09-29T03:51:42;95883.69;;;3.34;100.00
55079;BME280;55187;49.496;6.010;2022-09-29T03:54:09;95882.03;;;3.33;100.00
55079;BME280;55187;49.496;6.010;2022-09-29T03:56:37;95870.84;;;3.39;100.00
55079;BME280;55187;49.496;6.010;2022-09-29T03:59:04;95878.63;;;3.32;100.00
55079;BME280;55187;49.496;6.010;2022-09-29T04:01:34;95886.38;;;3.26;100.00
55079;BME280;55187;49.496;6.010;2022-09-29T04:04:00;95883.13;;;3.24;100.00
55079;BME280;55187;49.496;6.010;2022-09-29T04:06:27;95897.75;;;3.18;100.00
55079;BME280;55187;49.496;6.010;2022-09-29T04:08:53;95893.16;;;3.20;100.00
55079;BME280;55187;49.496;6.010;2022-09-29T04:11:20;95892.69;;;3.31;100.00
55079;BME280;55187;49.496;6.010;2022-09-29T04:13:46;95891.59;;;3.26;100.00
55079;BME280;55187;49.496;6.010;2022-09-29T04:16:12;95894.59;;;3.23;100.00
55079;BME280;55187;49.496;6.010;2022-09-29T04:18:39;95892.72;;;3.17;100.00
55079;BME280;55187;49.496;6.010;2022-09-29T04:21:06;95893.50;;;3.17;100.00
55079;BME280;55187;49.496;6.010;2022-09-29T04:23:34;95897.75;;;3.18;100.00
55079;BME280;55187;49.496;6.010;2022-09-29T04:26:01;95903.06;;;3.10;100.00
55079;BME280;55187;49.496;6.010;2022-09-29T04:28:27;95919.84;;;3.01;100.00
55079;BME280;55187;49.496;6.010;2022-09-29T04:30:55;95917.13;;;2.94;100.00
55079;BME280;55187;49.496;6.010;2022-09-29T04:33:22;95915.06;;;2.89;100.00
55079;BME280;55187;49.496;6.010;2022-09-29T04:35:48;95914.25;;;2.89;100.00
55079;BME280;55187;49.496;6.010;2022-09-29T04:38:15;95918.31;;;2.91;100.00
55079;BME280;55187;49.496;6.010;2022-09-29T04:40:41;95916.69;;;2.90;100.00
55079;BME280;55187;49.496;6.010;2022-09-29T04:43:08;95911.56;;;2.97;100.00
55079;BME280;55187;49.496;6.010;2022-09-29T04:45:35;95915.63;;;3.00;100.00
55079;BME280;55187;49.496;6.010;2022-09-29T04:48:01;95909.22;;;3.02;100.00
55079;BME280;55187;49.496;6.010;2022-09-29T04:50:27;95915.78;;;2.98;100.00
55079;BME280;55187;49.496;6.010;2022-09-29T04:52:54;95913.97;;;2.99;100.00
55079;BME280;55187;49.496;6.010;2022-09-29T04:55:21;95911.56;;;2.97;100.00
55079;BME280;55187;49.496;6.010;2022-09-29T04:57:47;95910.19;;;3.01;100.00
55079;BME280;55187;49.496;6.010;2022-09-29T05:00:15;95909.56;;;2.84;100.00
55079;BME280;55187;49.496;6.010;2022-09-29T05:02:42;95915.72;;;2.77;100.00
55079;BME280;55187;49.496;6.010;2022-09-29T05:05:09;95920.19;;;2.83;100.00
55079;BME280;55187;49.496;6.010;2022-09-29T05:07:38;95915.88;;;2.75;100.00
55079;BME280;55187;49.496;6.010;2022-09-29T05:10:06;95922.75;;;2.76;100.00
55079;BME280;55187;49.496;6.010;2022-09-29T05:12:33;95918.13;;;2.63;100.00
55079;BME280;55187;49.496;6.010;2022-09-29T05:14:59;95917.84;;;2.58;100.00
55079;BME280;55187;49.496;6.010;2022-09-29T05:17:26;95921.91;;;2.61;100.00
55079;BME280;55187;49.496;6.010;2022-09-29T05:19:52;95920.16;;;2.53;100.00
55079;BME280;55187;49.496;6.010;2022-09-29T05:22:18;95919.88;;;2.48;100.00
55079;BME280;55187;49.496;6.010;2022-09-29T05:24:50;95921.22;;;2.44;100.00
55079;BME280;55187;49.496;6.010;2022-09-29T05:27:17;95920.94;;;2.39;100.00
55079;BME280;55187;49.496;6.010;2022-09-29T05:29:43;95927.81;;;2.40;100.00
55079;BME280;55187;49.496;6.010;2022-09-29T05:32:10;95921.69;;;2.33;100.00
55079;BME280;55187;49.496;6.010;2022-09-29T05:34:37;95926.25;;;2.30;100.00
55079;BME280;55187;49.496;6.010;2022-09-29T05:37:03;95922.47;;;2.33;100.00
55079;BME280;55187;49.496;6.010;2022-09-29T05:39:29;95921.06;;;2.45;100.00
55079;BME280;55187;49.496;6.010;2022-09-29T05:42:00;95915.88;;;2.60;100.00
55079;BME280;55187;49.496;6.010;2022-09-29T05:44:27;95933.84;;;2.55;100.00
55079;BME280;55187;49.496;6.010;2022-09-29T05:46:54;95929.63;;;2.54;100.00
55079;BME280;55187;49.496;6.010;2022-09-29T05:49:20;95936.28;;;2.57;100.00
55079;BME280;55187;49.496;6.010;2022-09-29T05:51:47;95932.88;;;2.71;100.00
55079;BME280;55187;49.496;6.010;2022-09-29T05:54:13;95941.56;;;2.86;100.00
55079;BME280;55187;49.496;6.010;2022-09-29T05:56:39;95943.03;;;3.04;100.00
55079;BME280;55187;49.496;6.010;2022-09-29T05:59:06;95944.53;;;3.13;100.00
55079;BME280;55187;49.496;6.010;2022-09-29T06:01:32;95952.44;;;3.20;100.00
55079;BME280;55187;49.496;6.010;2022-09-29T06:03:59;95944.16;;;3.31;100.00
55079;BME280;55187;49.496;6.010;2022-09-29T06:06:28;95941.38;;;3.32;100.00
55079;BME280;55187;49.496;6.010;2022-09-29T06:08:56;95940.00;;;3.36;100.00
55079;BME280;55187;49.496;6.010;2022-09-29T06:11:26;95940.28;;;3.42;100.00
55079;BME280;55187;49.496;6.010;2022-09-29T06:13:53;95943.59;;;3.50;100.00
55079;BME280;55187;49.496;6.010;2022-09-29T06:16:23;95946.81;;;3.67;100.00
55079;BME280;55187;49.496;6.010;2022-09-29T06:18:50;95940.63;;;3.75;100.00
55079;BME280;55187;49.496;6.010;2022-09-29T06:21:22;95945.69;;;3.76;100.00
55079;BME280;55187;49.496;6.010;2022-09-29T06:23:50;95949.19;;;3.84;100.00
55079;BME280;55187;49.496;6.010;2022-09-29T06:26:18;95957.75;;;3.92;100.00
55079;BME280;55187;49.496;6.010;2022-09-29T06:28:44;95957.19;;;3.97;100.00
55079;BME280;55187;49.496;6.010;2022-09-29T06:31:13;95951.38;;;4.02;100.00
55079;BME280;55187;49.496;6.010;2022-09-29T06:33:40;95962.00;;;3.93;100.00
55079;BME280;55187;49.496;6.010;2022-09-29T06:36:14;95958.69;;;4.06;100.00
55079;BME280;55187;49.496;6.010;2022-09-29T06:38:54;95958.44;;;4.23;100.00
55079;BME280;55187;49.496;6.010;2022-09-29T06:41:20;95958.19;;;4.39;100.00
55079;BME280;55187;49.496;6.010;2022-09-29T06:43:46;95960.94;;;4.31;100.00
55079;BME280;55187;49.496;6.010;2022-09-29T06:46:13;95952.00;;;4.25;100.00
55079;BME280;55187;49.496;6.010;2022-09-29T06:48:39;95958.63;;;4.43;100.00
55079;BME280;55187;49.496;6.010;2022-09-29T06:51:07;95962.09;;;4.50;100.00
55079;BME280;55187;49.496;6.010;2022-09-29T06:53:34;95965.59;;;4.57;100.00
55079;BME280;55187;49.496;6.010;2022-09-29T06:56:01;95959.03;;;4.68;100.00
55079;BME280;55187;49.496;6.010;2022-09-29T06:58:28;95951.91;;;4.90;100.00
55079;BME280;55187;49.496;6.010;2022-09-29T07:00:58;95963.81;;;4.92;100.00
55079;BME280;55187;49.496;6.010;2022-09-29T07:03:25;95962.13;;;5.13;100.00
55079;BME280;55187;49.496;6.010;2022-09-29T07:05:51;95958.13;;;5.17;100.00
55079;BME280;55187;49.496;6.010;2022-09-29T07:08:17;95961.56;;;5.17;100.00
55079;BME280;55187;49.496;6.010;2022-09-29T07:10:45;95960.06;;;5.36;100.00
55079;BME280;55187;49.496;6.010;2022-09-29T07:13:11;95963.41;;;5.65;100.00
55079;BME280;55187;49.496;6.010;2022-09-29T07:15:37;95964.63;;;5.62;100.00
55079;BME280;55187;49.496;6.010;2022-09-29T07:18:04;95968.69;;;5.72;100.00
55079;BME280;55187;49.496;6.010;2022-09-29T07:20:31;95964.97;;;5.94;100.00
55079;BME280;55187;49.496;6.010;2022-09-29T07:22:57;95972.44;;;6.04;100.00
55079;BME280;55187;49.496;6.010;2022-09-29T07:25:24;95973.22;;;5.98;100.00
55079;BME280;55187;49.496;6.010;2022-09-29T07:27:50;95978.19;;;5.79;100.00
55079;BME280;55187;49.496;6.010;2022-09-29T07:30:17;95980.72;;;5.94;100.00
55079;BME280;55187;49.496;6.010;2022-09-29T07:32:44;95987.25;;;6.32;100.00
55079;BME280;55187;49.496;6.010;2022-09-29T07:35:10;95986.06;;;6.47;100.00
55079;BME280;55187;49.496;6.010;2022-09-29T07:37:39;95991.13;;;6.62;100.00
55079;BME280;55187;49.496;6.010;2022-09-29T07:40:11;95993.16;;;6.54;100.00
55079;BME280;55187;49.496;6.010;2022-09-29T07:42:38;95997.38;;;6.48;100.00
55079;BME280;55187;49.496;6.010;2022-09-29T07:45:05;95995.94;;;6.39;100.00
55079;BME280;55187;49.496;6.010;2022-09-29T07:47:32;95993.53;;;6.30;100.00
55079;BME280;55187;49.496;6.010;2022-09-29T07:49:58;96002.78;;;6.20;100.00
55079;BME280;55187;49.496;6.010;2022-09-29T07:52:24;95999.13;;;6.07;100.00
55079;BME280;55187;49.496;6.010;2022-09-29T07:54:51;96001.16;;;6.05;100.00
55079;BME280;55187;49.496;6.010;2022-09-29T07:57:17;95999.41;;;6.59;100.00
55079;BME280;55187;49.496;6.010;2022-09-29T07:59:43;96003.06;;;6.98;100.00
55079;BME280;55187;49.496;6.010;2022-09-29T08:02:12;96009.31;;;7.04;100.00
55079;BME280;55187;49.496;6.010;2022-09-29T08:04:45;96008.69;;;7.42;100.00
55079;BME280;55187;49.496;6.010;2022-09-29T08:07:11;96003.66;;;7.92;100.00
55079;BME280;55187;49.496;6.010;2022-09-29T08:09:38;96001.69;;;8.57;100.00
55079;BME280;55187;49.496;6.010;2022-09-29T08:12:04;96003.84;;;8.35;100.00
55079;BME280;55187;49.496;6.010;2022-09-29T08:14:30;95997.38;;;8.31;100.00
55079;BME280;55187;49.496;6.010;2022-09-29T08:16:57;96004.56;;;8.56;100.00
55079;BME280;55187;49.496;6.010;2022-09-29T08:19:23;96008.28;;;9.23;97.19
55079;BME280;55187;49.496;6.010;2022-09-29T08:21:51;96006.41;;;10.65;89.92
55079;BME280;55187;49.496;6.010;2022-09-29T08:24:17;96004.94;;;12.56;82.45
55079;BME280;55187;49.496;6.010;2022-09-29T08:26:44;96012.00;;;12.33;81.49
55079;BME280;55187;49.496;6.010;2022-09-29T08:29:11;96014.13;;;13.28;76.41
55079;BME280;55187;49.496;6.010;2022-09-29T08:31:38;96009.47;;;13.35;74.24
55079;BME280;55187;49.496;6.010;2022-09-29T08:34:05;96022.06;;;12.20;77.62
55079;BME280;55187;49.496;6.010;2022-09-29T08:36:31;96025.19;;;13.25;73.93
55079;BME280;55187;49.496;6.010;2022-09-29T08:38:58;96020.88;;;14.13;70.51
55079;BME280;55187;49.496;6.010;2022-09-29T08:41:45;96022.91;;;14.77;67.80
55079;BME280;55187;49.496;6.010;2022-09-29T08:44:28;96025.53;;;16.32;65.16
55079;BME280;55187;49.496;6.010;2022-09-29T08:47:13;96036.97;;;16.27;61.83
55079;BME280;55187;49.496;6.010;2022-09-29T08:49:47;96042.13;;;16.49;61.96
55079;BME280;55187;49.496;6.010;2022-09-29T08:52:22;96041.06;;;16.55;61.37
55079;BME280;55187;49.496;6.010;2022-09-29T08:54:52;96041.63;;;16.68;60.80
55079;BME280;55187;49.496;6.010;2022-09-29T08:57:21;96048.06;;;15.56;63.17
55079;BME280;55187;49.496;6.010;2022-09-29T08:59:53;96043.84;;;17.53;58.66
55079;BME280;55187;49.496;6.010;2022-09-29T09:05:50;96052.56;;;15.93;61.79
55079;BME280;55187;49.496;6.010;2022-09-29T09:08:53;96057.09;;;16.61;61.21
55079;BME280;55187;49.496;6.010;2022-09-29T09:20:25;96045.69;;;17.93;56.82
55079;BME280;55187;49.496;6.010;2022-09-29T09:22:59;96059.75;;;16.45;59.68
55079;BME280;55187;49.496;6.010;2022-09-29T09:25:32;96051.63;;;17.13;59.34
55079;BME280;55187;49.496;6.010;2022-09-29T09:28:05;96057.78;;;17.34;57.97
55079;BME280;55187;49.496;6.010;2022-09-29T09:30:40;96059.69;;;16.30;58.76
55079;BME280;55187;49.496;6.010;2022-09-29T09:33:23;96061.28;;;14.81;65.62
55079;BME280;55187;49.496;6.010;2022-09-29T09:35:59;96061.97;;;14.99;65.26
55079;BME280;55187;49.496;6.010;2022-09-29T09:38:44;96073.63;;;13.43;70.64
55079;BME280;55187;49.496;6.010;2022-09-29T09:41:16;96070.22;;;12.40;73.30
55079;BME280;55187;49.496;6.010;2022-09-29T09:43:50;96066.75;;;12.68;73.74
55079;BME280;55187;49.496;6.010;2022-09-29T09:46:35;96071.81;;;12.41;73.74
55079;BME280;55187;49.496;6.010;2022-09-29T09:49:18;96071.38;;;12.32;75.46
55079;BME280;55187;49.496;6.010;2022-09-29T09:52:01;96072.91;;;13.48;70.73
55079;BME280;55187;49.496;6.010;2022-09-29T09:54:33;96065.72;;;13.66;69.79
55079;BME280;55187;49.496;6.010;2022-09-29T10:00:15;96066.53;;;14.27;68.34
55079;BME280;55187;49.496;6.010;2022-09-29T10:02:50;96069.00;;;13.05;70.42
55079;BME280;55187;49.496;6.010;2022-09-29T10:05:20;96065.31;;;13.23;71.41
55079;BME280;55187;49.496;6.010;2022-09-29T10:07:50;96069.06;;;13.27;70.75
55079;BME280;55187;49.496;6.010;2022-09-29T10:10:27;96060.50;;;13.93;69.77
55079;BME280;55187;49.496;6.010;2022-09-29T10:13:04;96065.09;;;14.90;65.82
55079;BME280;55187;49.496;6.010;2022-09-29T10:15:49;96070.16;;;14.65;65.51
55079;BME280;55187;49.496;6.010;2022-09-29T10:21:02;96075.09;;;12.89;73.13
55079;BME280;55187;49.496;6.010;2022-09-29T10:23:32;96077.41;;;12.16;73.46
55079;BME280;55187;49.496;6.010;2022-09-29T10:26:12;96075.09;;;13.22;70.42
55079;BME280;55187;49.496;6.010;2022-09-29T10:28:44;96067.59;;;12.57;71.32
55079;BME280;55187;49.496;6.010;2022-09-29T10:31:16;96074.81;;;14.31;66.51
55079;BME280;55187;49.496;6.010;2022-09-29T10:33:48;96070.63;;;15.11;63.69
55079;BME280;55187;49.496;6.010;2022-09-29T10:36:16;96069.69;;;14.68;63.94
55079;BME280;55187;49.496;6.010;2022-09-29T10:38:46;96075.66;;;13.25;65.94
55079;BME280;55187;49.496;6.010;2022-09-29T10:41:14;96084.91;;;12.07;71.21
55079;BME280;55187;49.496;6.010;2022-09-29T10:43:42;96081.03;;;11.63;74.32
55079;BME280;55187;49.496;6.010;2022-09-29T10:49:20;96079.63;;;11.72;75.09
55079;BME280;55187;49.496;6.010;2022-09-29T10:52:03;96080.66;;;11.47;77.27
55079;BME280;55187;49.496;6.010;2022-09-29T10:54:39;96075.91;;;12.20;75.14
55079;BME280;55187;49.496;6.010;2022-09-29T10:57:25;96073.38;;;12.83;71.81
55079;BME280;55187;49.496;6.010;2022-09-29T10:59:52;96083.72;;;12.38;74.21
55079;BME280;55187;49.496;6.010;2022-09-29T11:02:31;96084.03;;;11.90;76.10
55079;BME280;55187;49.496;6.010;2022-09-29T11:05:04;96086.91;;;11.88;76.17
55079;BME280;55187;49.496;6.010;2022-09-29T11:07:46;96085.50;;;12.09;75.89
55079;BME280;55187;49.496;6.010;2022-09-29T11:10:28;96091.88;;;12.77;72.79
55079;BME280;55187;49.496;6.010;2022-09-29T11:12:57;96079.03;;;13.03;72.77
55079;BME280;55187;49.496;6.010;2022-09-29T11:15:35;96081.25;;;13.23;71.57
55079;BME280;55187;49.496;6.010;2022-09-29T11:18:18;96075.13;;;12.48;73.07
55079;BME280;55187;49.496;6.010;2022-09-29T11:20:55;96082.41;;;12.82;72.81
55079;BME280;55187;49.496;6.010;2022-09-29T11:23:31;96080.78;;;12.97;71.73
55079;BME280;55187;49.496;6.010;2022-09-29T11:31:53;96072.06;;;13.14;73.26
55079;BME280;55187;49.496;6.010;2022-09-29T11:34:46;96083.53;;;12.57;69.03
55079;BME280;55187;49.496;6.010;2022-09-29T11:40:11;96088.03;;;13.02;69.70
55079;BME280;55187;49.496;6.010;2022-09-29T11:45:37;96095.22;;;13.30;67.08
55079;BME280;55187;49.496;6.010;2022-09-29T11:51:19;96088.09;;;12.90;70.88
55079;BME280;55187;49.496;6.010;2022-09-29T11:54:09;96097.06;;;12.44;67.34
55079;BME280;55187;49.496;6.010;2022-09-29T11:56:54;96096.56;;;13.04;71.49
55079;BME280;55187;49.496;6.010;2022-09-29T12:02:39;96105.34;;;12.59;70.54
55079;BME280;55187;49.496;6.010;2022-09-29T12:15:22;96106.72;;;11.86;70.04
55079;BME280;55187;49.496;6.010;2022-09-29T12:17:55;96104.84;;;11.39;69.79
55079;BME280;55187;49.496;6.010;2022-09-29T12:20:27;96101.03;;;11.35;71.19
55079;BME280;55187;49.496;6.010;2022-09-29T12:22:57;96102.91;;;11.34;70.03
55079;BME280;55187;49.496;6.010;2022-09-29T12:25:28;96108.63;;;11.31;68.58
55079;BME280;55187;49.496;6.010;2022-09-29T12:28:00;96104.38;;;11.42;67.32
55079;BME280;55187;49.496;6.010;2022-09-29T12:30:45;96099.56;;;11.51;68.40
55079;BME280;55187;49.496;6.010;2022-09-29T12:33:19;96111.31;;;11.67;68.61
55079;BME280;55187;49.496;6.010;2022-09-29T12:36:05;96107.13;;;11.36;70.07
55079;BME280;55187;49.496;6.010;2022-09-29T12:38:57;96115.34;;;11.81;70.03
55079;BME280;55187;49.496;6.010;2022-09-29T12:41:31;96113.66;;;11.09;69.39
55079;BME280;55187;49.496;6.010;2022-09-29T12:44:29;96108.88;;;11.30;68.19
55079;BME280;55187;49.496;6.010;2022-09-29T12:47:03;96118.94;;;10.98;69.11
55079;BME280;55187;49.496;6.010;2022-09-29T12:49:54;96114.69;;;11.08;69.18
55079;BME280;55187;49.496;6.010;2022-09-29T12:52:27;96112.06;;;10.78;69.93
55079;BME280;55187;49.496;6.010;2022-09-29T12:55:01;96109.69;;;10.40;70.24
55079;BME280;55187;49.496;6.010;2022-09-29T12:57:35;96114.22;;;10.51;70.40
55079;BME280;55187;49.496;6.010;2022-09-29T13:00:14;96112.19;;;10.16;71.07
55079;BME280;55187;49.496;6.010;2022-09-29T13:06:01;96112.41;;;9.78;72.08
55079;BME280;55187;49.496;6.010;2022-09-29T13:11:48;96120.44;;;10.45;70.21
55079;BME280;55187;49.496;6.010;2022-09-29T13:14:31;96123.25;;;10.62;71.40
55079;BME280;55187;49.496;6.010;2022-09-29T13:17:16;96112.06;;;10.78;70.22
55079;BME280;55187;49.496;6.010;2022-09-29T13:23:36;96117.94;;;10.80;71.51
55079;BME280;55187;49.496;6.010;2022-09-29T13:28:56;96116.75;;;10.76;68.81
55079;BME280;55187;49.496;6.010;2022-09-29T13:31:29;96129.94;;;10.64;68.34
55079;BME280;55187;49.496;6.010;2022-09-29T13:34:00;96121.13;;;10.70;68.40
55079;BME280;55187;49.496;6.010;2022-09-29T13:36:32;96128.09;;;10.65;69.43
55079;BME280;55187;49.496;6.010;2022-09-29T13:39:03;96129.03;;;10.89;68.98
55079;BME280;55187;49.496;6.010;2022-09-29T13:41:34;96129.59;;;10.91;69.38
55079;BME280;55187;49.496;6.010;2022-09-29T13:46:43;96129.31;;;10.50;72.74
55079;BME280;55187;49.496;6.010;2022-09-29T13:49:22;96124.38;;;10.54;73.28
55079;BME280;55187;49.496;6.010;2022-09-29T13:51:58;96128.50;;;10.50;72.54
55079;BME280;55187;49.496;6.010;2022-09-29T13:54:36;96133.25;;;10.60;72.28
55079;BME280;55187;49.496;6.010;2022-09-29T13:57:20;96142.25;;;10.40;74.98
55079;BME280;55187;49.496;6.010;2022-09-29T14:00:03;96139.28;;;10.48;74.62
55079;BME280;55187;49.496;6.010;2022-09-29T14:02:40;96135.25;;;10.64;73.29
55079;BME280;55187;49.496;6.010;2022-09-29T14:08:15;96138.19;;;10.56;73.84
55079;BME280;55187;49.496;6.010;2022-09-29T14:10:50;96135.47;;;10.44;76.06
55079;BME280;55187;49.496;6.010;2022-09-29T14:13:30;96129.94;;;10.27;74.82
55079;BME280;55187;49.496;6.010;2022-09-29T14:16:20;96134.41;;;10.34;73.58
55079;BME280;55187;49.496;6.010;2022-09-29T14:19:04;96143.84;;;10.41;74.78
55079;BME280;55187;49.496;6.010;2022-09-29T14:24:46;96140.53;;;10.27;69.95
55079;BME280;55187;49.496;6.010;2022-09-29T14:27:20;96148.41;;;10.34;70.31
55079;BME280;55187;49.496;6.010;2022-09-29T14:29:54;96148.59;;;10.14;73.59
55079;BME280;55187;49.496;6.010;2022-09-29T14:32:27;96154.16;;;9.87;73.44
55079;BME280;55187;49.496;6.010;2022-09-29T14:34:58;96149.63;;;10.13;70.90
55079;BME280;55187;49.496;6.010;2022-09-29T14:37:26;96156.97;;;10.11;71.65
55079;BME280;55187;49.496;6.010;2022-09-29T14:39:53;96161.31;;;10.24;70.92
55079;BME280;55187;49.496;6.010;2022-09-29T14:42:33;96161.00;;;10.14;71.15
55079;BME280;55187;49.496;6.010;2022-09-29T14:45:01;96156.25;;;10.04;71.17
55079;BME280;55187;49.496;6.010;2022-09-29T14:47:59;96159.38;;;9.94;73.29
55079;BME280;55187;49.496;6.010;2022-09-29T14:50:46;96157.00;;;9.86;75.98